createdAt,value
2023-02-05T00:02:21.578Z,9.20
2023-02-05T00:04:51.154Z,10.67
2023-02-05T00:07:21.779Z,9.30
2023-02-05T00:09:52.730Z,9.77
2023-02-05T00:12:23.749Z,8.97
2023-02-05T00:14:53.743Z,9.83
2023-02-05T00:17:23.161Z,9.93
2023-02-05T00:19:53.142Z,9.20
2023-02-05T00:22:22.682Z,9.50
2023-02-05T00:24:54.203Z,10.13
2023-02-05T00:27:23.609Z,9.83
2023-02-05T00:29:53.165Z,9.70
2023-02-05T00:32:22.190Z,10.90
2023-02-05T00:34:50.847Z,9.47
2023-02-05T00:37:21.331Z,9.90
2023-02-05T00:39:52.185Z,9.80
2023-02-05T00:42:20.995Z,10.30
2023-02-05T00:44:51.046Z,8.97
2023-02-05T00:47:19.987Z,9.93
2023-02-05T00:49:49.965Z,10.97
2023-02-05T00:52:19.560Z,9.10
2023-02-05T00:54:48.719Z,10.30
2023-02-05T00:57:24.813Z,11.77
2023-02-05T00:59:55.351Z,10.20
2023-02-05T01:02:25.872Z,10.07
2023-02-05T01:04:55.899Z,9.70
2023-02-05T01:07:25.946Z,9.60
2023-02-05T01:09:55.722Z,9.47
2023-02-05T01:12:27.260Z,8.57
2023-02-05T01:14:56.775Z,8.80
2023-02-05T01:17:25.655Z,8.87
2023-02-05T01:19:55.857Z,9.23
2023-02-05T01:22:25.130Z,8.93
2023-02-05T01:24:55.064Z,8.20
2023-02-05T01:27:25.417Z,8.30
2023-02-05T01:29:55.259Z,9.50
2023-02-05T01:32:24.815Z,9.50
2023-02-05T01:34:54.953Z,9.60
2023-02-05T01:37:23.811Z,8.40
2023-02-05T01:39:53.304Z,9.50
2023-02-05T01:42:27.315Z,9.60
2023-02-05T01:45:51.795Z,8.97
2023-02-05T01:48:29.601Z,9.50
2023-02-05T01:51:05.479Z,8.10
2023-02-05T01:53:37.857Z,8.40
2023-02-05T01:56:12.169Z,9.47
2023-02-05T01:58:50.965Z,8.00
2023-02-05T02:01:20.064Z,9.57
2023-02-05T02:03:51.673Z,9.30
2023-02-05T02:06:21.690Z,9.20
2023-02-05T02:08:51.157Z,9.50
2023-02-05T02:11:24.347Z,8.33
2023-02-05T02:14:00.358Z,9.53
2023-02-05T02:16:31.590Z,8.57
2023-02-05T02:19:02.812Z,7.77
2023-02-05T02:22:13.052Z,8.50
2023-02-05T02:25:34.640Z,8.13
2023-02-05T02:28:13.863Z,8.87
2023-02-05T02:30:51.278Z,8.90
2023-02-05T02:33:28.809Z,9.53
2023-02-05T02:36:09.473Z,7.60
2023-02-05T02:38:45.348Z,7.77
2023-02-05T02:41:24.007Z,8.30
2023-02-05T02:43:59.643Z,7.13
2023-02-05T02:46:37.841Z,7.77
2023-02-05T02:49:13.893Z,8.40
2023-02-05T02:51:45.350Z,8.17
2023-02-05T02:54:20.151Z,7.53
2023-02-05T02:56:52.982Z,8.27
2023-02-05T02:59:28.103Z,7.20
2023-02-05T03:02:04.669Z,7.27
2023-02-05T03:04:40.516Z,7.30
2023-02-05T03:07:19.389Z,7.80
2023-02-05T03:09:59.250Z,6.87
2023-02-05T03:12:29.935Z,7.73
2023-02-05T03:15:01.010Z,7.40
2023-02-05T03:17:32.249Z,7.47
2023-02-05T03:20:11.810Z,8.50
2023-02-05T03:22:42.286Z,6.87
2023-02-05T03:25:12.902Z,8.53
2023-02-05T03:27:43.038Z,7.70
2023-02-05T03:30:14.758Z,7.37
2023-02-05T03:33:02.231Z,6.80
2023-02-05T03:35:43.363Z,7.97
2023-02-05T03:38:30.935Z,8.30
2023-02-05T03:41:16.621Z,8.77
2023-02-05T03:44:01.016Z,6.63
2023-02-05T03:46:43.713Z,7.20
2023-02-05T03:49:25.049Z,7.30
2023-02-05T03:52:05.768Z,6.83
2023-02-05T03:54:42.295Z,6.47
2023-02-05T03:57:21.879Z,7.60
2023-02-05T03:59:52.461Z,7.70
2023-02-05T04:02:24.234Z,7.37
2023-02-05T04:04:54.739Z,6.47
2023-02-05T04:07:25.269Z,7.40
2023-02-05T04:09:54.755Z,7.13
2023-02-05T04:12:24.873Z,7.50
2023-02-05T04:14:54.787Z,6.63
2023-02-05T04:17:25.565Z,7.30
2023-02-05T04:19:58.033Z,7.40
2023-02-05T04:22:28.754Z,7.67
2023-02-05T04:24:59.270Z,7.23
2023-02-05T04:27:29.973Z,6.70
2023-02-05T04:29:59.496Z,7.33
2023-02-05T04:32:30.560Z,7.27
2023-02-05T04:35:00.693Z,7.70
2023-02-05T04:37:29.738Z,7.43
2023-02-05T04:39:59.696Z,6.87
2023-02-05T04:42:28.738Z,7.13
2023-02-05T04:44:58.144Z,7.97
2023-02-05T04:47:27.972Z,6.97
2023-02-05T04:49:59.198Z,6.67
2023-02-05T04:52:28.764Z,6.13
2023-02-05T04:54:58.394Z,6.40
2023-02-05T04:57:27.171Z,6.03
2023-02-05T04:59:56.376Z,6.10
2023-02-05T05:02:26.153Z,5.40
2023-02-05T05:04:56.762Z,5.87
2023-02-05T05:07:28.021Z,7.07
2023-02-05T05:09:58.655Z,7.43
2023-02-05T05:12:27.652Z,6.30
2023-02-05T05:14:56.739Z,6.27
2023-02-05T05:17:26.883Z,5.80
2023-02-05T05:19:56.467Z,6.50
2023-02-05T05:22:27.868Z,6.93
2023-02-05T05:24:57.577Z,6.80
2023-02-05T05:27:27.385Z,6.07
2023-02-05T05:29:56.597Z,6.70
2023-02-05T05:32:26.895Z,7.23
2023-02-05T05:34:58.017Z,7.37
2023-02-05T05:37:29.750Z,6.80
2023-02-05T05:40:16.470Z,7.20
2023-02-05T05:43:03.138Z,6.10
2023-02-05T05:45:33.658Z,6.37
2023-02-05T05:48:03.926Z,7.53
2023-02-05T05:50:34.634Z,7.70
2023-02-05T05:53:06.069Z,5.43
2023-02-05T05:55:36.029Z,7.10
2023-02-05T05:58:07.002Z,6.30
2023-02-05T06:00:37.627Z,6.33
2023-02-05T06:03:08.373Z,6.60
2023-02-05T06:05:38.764Z,6.57
2023-02-05T06:08:10.033Z,5.57
2023-02-05T06:10:40.190Z,5.60
2023-02-05T06:13:09.848Z,6.03
2023-02-05T06:15:38.858Z,6.90
2023-02-05T06:18:09.077Z,5.90
2023-02-05T06:20:37.475Z,6.50
2023-02-05T06:23:08.270Z,6.23
2023-02-05T06:25:37.472Z,5.80
2023-02-05T06:28:07.588Z,6.33
2023-02-05T06:30:38.513Z,5.93
2023-02-05T06:33:07.410Z,6.13
2023-02-05T06:35:36.849Z,6.67
2023-02-05T06:38:06.916Z,6.73
2023-02-05T06:40:38.353Z,6.50
2023-02-05T06:43:08.048Z,6.30
2023-02-05T06:45:37.520Z,6.07
2023-02-05T06:48:07.769Z,6.10
2023-02-05T06:50:37.193Z,5.77
2023-02-05T06:53:05.713Z,5.83
2023-02-05T06:55:38.403Z,6.00
2023-02-05T06:58:09.056Z,6.20
2023-02-05T07:00:38.871Z,6.63
2023-02-05T07:03:07.773Z,7.30
2023-02-05T07:05:38.542Z,6.77
2023-02-05T07:08:08.364Z,5.83
2023-02-05T07:10:40.395Z,6.30
2023-02-05T07:13:10.485Z,6.53
2023-02-05T07:15:39.301Z,7.87
2023-02-05T07:18:09.530Z,8.63
2023-02-05T07:20:39.434Z,6.63
2023-02-05T07:23:09.784Z,7.23
2023-02-05T07:25:40.385Z,7.43
2023-02-05T07:28:11.544Z,5.77
2023-02-05T07:30:41.198Z,5.80
2023-02-05T07:33:10.165Z,6.10
2023-02-05T07:35:40.507Z,8.33
2023-02-05T07:38:11.759Z,7.20
2023-02-05T07:40:42.631Z,6.73
2023-02-05T07:43:12.072Z,6.47
2023-02-05T07:45:41.224Z,5.60
2023-02-05T07:48:10.751Z,6.30
2023-02-05T07:50:40.142Z,7.37
2023-02-05T07:53:09.597Z,5.70
2023-02-05T07:55:40.519Z,7.37
2023-02-05T07:58:09.505Z,7.40
2023-02-05T08:00:39.162Z,5.97
2023-02-05T08:03:09.703Z,7.47
2023-02-05T08:05:39.018Z,6.53
2023-02-05T08:08:08.560Z,6.63
2023-02-05T08:10:38.478Z,6.40
2023-02-05T08:13:09.989Z,6.50
2023-02-05T08:15:40.873Z,6.37
2023-02-05T08:18:09.724Z,7.53
2023-02-05T08:20:39.402Z,6.90
2023-02-05T08:23:09.406Z,6.73
2023-02-05T08:25:40.323Z,6.90
2023-02-05T08:28:11.531Z,7.20
2023-02-05T08:30:42.091Z,6.10
2023-02-05T08:33:11.453Z,6.77
2023-02-05T08:35:40.600Z,6.93
2023-02-05T08:38:10.085Z,7.63
2023-02-05T08:40:40.186Z,7.47
2023-02-05T08:43:12.034Z,6.73
2023-02-05T08:45:41.714Z,7.97
2023-02-05T08:48:11.151Z,6.90
2023-02-05T08:50:41.196Z,6.60
2023-02-05T08:53:10.755Z,7.60
2023-02-05T08:55:40.100Z,7.60
2023-02-05T08:58:10.604Z,6.33
2023-02-05T09:00:40.731Z,7.30
2023-02-05T09:03:11.597Z,7.37
2023-02-05T09:05:42.216Z,7.43
2023-02-05T09:08:11.473Z,7.10
2023-02-05T09:10:41.891Z,7.90
2023-02-05T09:13:12.315Z,7.50
2023-02-05T09:15:47.742Z,7.03
2023-02-05T09:18:18.563Z,8.50
2023-02-05T09:20:51.640Z,8.13
2023-02-05T09:23:21.497Z,8.00
2023-02-05T09:25:51.353Z,8.33
2023-02-05T09:28:22.721Z,8.13
2023-02-05T09:30:52.916Z,8.23
2023-02-05T09:33:22.891Z,8.67
2023-02-05T09:35:51.422Z,7.13
2023-02-05T09:38:21.983Z,7.40
2023-02-05T09:41:03.578Z,7.90
2023-02-05T09:43:48.409Z,6.93
2023-02-05T09:46:32.240Z,7.50
2023-02-05T09:49:15.311Z,6.67
2023-02-05T09:51:49.835Z,7.83
2023-02-05T09:54:26.325Z,7.73
2023-02-05T09:57:02.416Z,8.00
2023-02-05T09:59:36.407Z,6.90
2023-02-05T10:02:24.157Z,5.63
2023-02-05T10:04:55.814Z,6.00
2023-02-05T10:07:37.997Z,5.80
2023-02-05T10:10:30.459Z,6.10
2023-02-05T10:13:32.771Z,6.03
2023-02-05T10:17:15.337Z,5.70
2023-02-05T10:20:27.402Z,5.70
2023-02-05T10:23:16.948Z,5.33
2023-02-05T10:26:06.479Z,5.00
2023-02-05T10:29:20.142Z,4.73
2023-02-05T10:32:11.556Z,4.40
2023-02-05T10:34:57.169Z,4.97
2023-02-05T10:37:40.297Z,5.07
2023-02-05T10:40:16.969Z,6.77
2023-02-05T10:42:51.541Z,4.57
2023-02-05T10:45:26.814Z,4.53
2023-02-05T10:48:26.807Z,5.37
2023-02-05T10:51:01.987Z,5.10
2023-02-05T10:53:33.213Z,4.43
2023-02-05T10:56:05.830Z,4.80
2023-02-05T10:58:47.003Z,3.97
2023-02-05T11:01:21.750Z,3.83
2023-02-05T11:04:00.931Z,3.77
2023-02-05T11:06:34.520Z,3.63
2023-02-05T11:09:04.017Z,3.73
2023-02-05T11:11:35.368Z,3.70
2023-02-05T11:14:08.542Z,4.80
2023-02-05T11:16:44.174Z,3.77
2023-02-05T11:19:24.138Z,3.57
2023-02-05T11:21:57.158Z,3.77
2023-02-05T11:24:34.664Z,3.47
2023-02-05T11:27:33.398Z,2.70
2023-02-05T11:30:49.720Z,2.47
2023-02-05T11:33:29.850Z,2.13
2023-02-05T11:36:04.380Z,1.63
2023-02-05T11:38:44.575Z,1.70
2023-02-05T11:41:27.106Z,1.53
2023-02-05T11:43:58.479Z,1.40
2023-02-05T11:46:30.762Z,1.30
2023-02-05T11:49:02.855Z,1.60
2023-02-05T11:51:44.686Z,1.50
2023-02-05T11:54:24.260Z,1.37
2023-02-05T11:57:06.776Z,1.30
2023-02-05T11:59:37.941Z,1.20
2023-02-05T12:02:31.896Z,1.10
2023-02-05T12:05:10.833Z,0.93
2023-02-05T12:07:51.139Z,0.90
2023-02-05T12:10:34.877Z,1.00
2023-02-05T12:13:20.577Z,0.90
2023-02-05T12:16:02.874Z,0.70
2023-02-05T12:18:51.327Z,0.80
2023-02-05T12:21:38.349Z,0.80
2023-02-05T12:24:41.781Z,0.90
2023-02-05T12:27:31.666Z,4.97
2023-02-05T12:30:34.777Z,1.20
2023-02-05T12:33:32.497Z,0.67
2023-02-05T12:36:26.840Z,0.90
2023-02-05T12:39:18.805Z,0.80
2023-02-05T12:42:06.834Z,0.70
2023-02-05T12:44:58.978Z,0.70
2023-02-05T12:47:56.785Z,0.70
2023-02-05T12:50:59.533Z,0.70
2023-02-05T12:54:20.466Z,0.70
2023-02-05T12:57:02.245Z,0.90
2023-02-05T12:59:40.253Z,1.10
2023-02-05T13:02:25.980Z,1.33
2023-02-05T13:05:10.371Z,1.23
2023-02-05T13:07:44.305Z,1.10
2023-02-05T13:10:24.081Z,1.00
2023-02-05T13:13:02.246Z,0.80
2023-02-05T13:15:38.359Z,0.70
2023-02-05T13:18:15.956Z,0.70
2023-02-05T13:21:09.160Z,0.70
2023-02-05T13:24:00.678Z,0.90
2023-02-05T13:26:58.201Z,0.80
2023-02-05T13:29:34.399Z,1.00
2023-02-05T13:32:15.923Z,0.80
2023-02-05T13:34:46.257Z,0.80
2023-02-05T13:37:56.098Z,1.03
2023-02-05T13:41:18.576Z,5.80
2023-02-05T13:45:07.738Z,0.90
2023-02-05T13:48:27.665Z,0.70
2023-02-05T13:51:44.924Z,0.70
2023-02-05T13:55:13.473Z,0.80
2023-02-05T13:58:15.796Z,0.90
2023-02-05T14:00:52.177Z,0.80
2023-02-05T14:03:36.068Z,0.80
2023-02-05T14:06:23.629Z,0.80
2023-02-05T14:09:02.201Z,0.70
2023-02-05T14:11:47.757Z,0.90
2023-02-05T14:14:30.557Z,0.93
2023-02-05T14:17:02.719Z,0.70
2023-02-05T14:19:58.553Z,0.80
2023-02-05T14:22:42.992Z,0.80
2023-02-05T14:26:11.957Z,0.87
2023-02-05T14:28:53.417Z,0.80
2023-02-05T14:31:49.341Z,3.67
2023-02-05T14:35:01.358Z,1.00
2023-02-05T14:37:39.610Z,1.10
2023-02-05T14:40:28.992Z,1.00
2023-02-05T14:43:10.577Z,0.90
2023-02-05T14:45:49.955Z,0.70
2023-02-05T14:48:28.567Z,0.80
2023-02-05T14:51:15.678Z,1.07
2023-02-05T14:53:58.073Z,0.80
2023-02-05T14:56:34.171Z,0.73
2023-02-05T14:59:17.785Z,0.80
2023-02-05T15:01:54.520Z,0.80
2023-02-05T15:04:46.079Z,0.87
2023-02-05T15:07:24.716Z,0.90
2023-02-05T15:10:02.279Z,0.90
2023-02-05T15:13:03.447Z,0.90
2023-02-05T15:15:36.336Z,0.70
2023-02-05T15:18:16.753Z,0.80
2023-02-05T15:20:50.208Z,1.00
2023-02-05T15:23:31.892Z,0.93
2023-02-05T15:26:07.317Z,1.00
2023-02-05T15:28:42.293Z,0.90
2023-02-05T15:31:32.012Z,0.80
2023-02-05T15:34:21.803Z,0.90
2023-02-05T15:36:59.874Z,1.00
2023-02-05T15:39:39.319Z,1.00
2023-02-05T15:42:12.588Z,0.80
2023-02-05T15:44:42.967Z,1.10
2023-02-05T15:47:21.085Z,0.87
2023-02-05T15:49:53.774Z,1.00
2023-02-05T15:52:27.152Z,0.80
2023-02-05T15:55:10.510Z,0.90
2023-02-05T15:57:40.835Z,1.00
2023-02-05T16:00:20.386Z,0.90
2023-02-05T16:02:57.507Z,0.77
2023-02-05T16:05:29.624Z,0.90
2023-02-05T16:08:01.957Z,0.80
2023-02-05T16:10:35.539Z,1.20
2023-02-05T16:13:08.548Z,1.20
2023-02-05T16:15:45.046Z,1.17
2023-02-05T16:18:21.986Z,0.97
2023-02-05T16:20:56.979Z,1.03
2023-02-05T16:23:32.565Z,1.90
2023-02-05T16:26:13.008Z,1.10
2023-02-05T16:28:50.177Z,1.20
2023-02-05T16:31:24.435Z,1.13
2023-02-05T16:34:00.141Z,1.20
2023-02-05T16:36:35.112Z,1.20
2023-02-05T16:39:08.432Z,1.23
2023-02-05T16:41:44.466Z,1.10
2023-02-05T16:44:32.108Z,1.20
2023-02-05T16:47:18.428Z,1.30
2023-02-05T16:49:49.733Z,1.03
2023-02-05T16:52:31.955Z,1.10
2023-02-05T16:55:07.297Z,1.30
2023-02-05T16:57:41.893Z,1.20
2023-02-05T17:00:25.799Z,0.97
2023-02-05T17:02:58.015Z,0.93
2023-02-05T17:05:30.790Z,1.00
2023-02-05T17:08:04.823Z,1.20
2023-02-05T17:10:50.931Z,1.27
2023-02-05T17:13:37.406Z,2.23
2023-02-05T17:16:29.316Z,1.90
2023-02-05T17:19:00.878Z,1.63
2023-02-05T17:21:32.837Z,1.60
2023-02-05T17:24:06.069Z,1.50
2023-02-05T17:26:41.571Z,1.47
2023-02-05T17:29:17.202Z,1.50
2023-02-05T17:31:48.254Z,1.53
2023-02-05T17:34:17.728Z,1.40
2023-02-05T17:36:47.703Z,1.30
2023-02-05T17:39:17.213Z,1.43
2023-02-05T17:42:09.124Z,1.53
2023-02-05T17:44:40.118Z,1.50
2023-02-05T17:47:09.820Z,1.37
2023-02-05T17:49:38.840Z,1.50
2023-02-05T17:52:08.159Z,1.57
2023-02-05T17:54:36.673Z,1.27
2023-02-05T17:57:17.689Z,1.40
2023-02-05T17:59:49.125Z,1.40
2023-02-05T18:02:19.294Z,1.50
2023-02-05T18:04:47.823Z,1.30
2023-02-05T18:07:27.845Z,1.77
2023-02-05T18:09:56.841Z,1.30
2023-02-05T18:12:26.991Z,1.63
2023-02-05T18:14:57.740Z,1.50
2023-02-05T18:17:27.189Z,1.90
2023-02-05T18:19:56.775Z,1.60
2023-02-05T18:22:26.235Z,1.30
2023-02-05T18:24:56.353Z,1.50
2023-02-05T18:27:26.009Z,1.43
2023-02-05T18:29:58.026Z,1.63
2023-02-05T18:32:27.524Z,1.40
2023-02-05T18:34:57.601Z,3.10
2023-02-05T18:37:27.128Z,1.73
2023-02-05T18:39:57.085Z,1.20
2023-02-05T18:42:27.476Z,1.20
2023-02-05T18:44:57.820Z,1.00
2023-02-05T18:47:28.528Z,1.20
2023-02-05T18:49:57.162Z,1.17
2023-02-05T18:52:26.674Z,1.23
2023-02-05T18:54:56.809Z,1.00
2023-02-05T18:57:26.839Z,1.17
2023-02-05T18:59:57.767Z,1.10
2023-02-05T19:02:26.701Z,1.17
2023-02-05T19:04:56.765Z,1.20
2023-02-05T19:07:27.349Z,1.23
2023-02-05T19:09:57.696Z,1.03
2023-02-05T19:12:26.755Z,0.93
2023-02-05T19:14:56.672Z,0.93
2023-02-05T19:17:28.719Z,1.33
2023-02-05T19:19:59.331Z,1.43
2023-02-05T19:22:30.132Z,1.30
2023-02-05T19:25:00.805Z,1.20
2023-02-05T19:27:29.984Z,1.30
2023-02-05T19:29:59.742Z,1.23
2023-02-05T19:32:29.338Z,1.40
2023-02-05T19:35:00.713Z,1.27
2023-02-05T19:37:29.629Z,2.00
2023-02-05T19:40:00.889Z,2.30
2023-02-05T19:42:31.250Z,1.37
2023-02-05T19:45:03.449Z,1.70
2023-02-05T19:47:32.971Z,1.57
2023-02-05T19:50:03.101Z,1.90
2023-02-05T19:52:33.144Z,2.30
2023-02-05T19:55:03.258Z,2.07
2023-02-05T19:57:32.256Z,1.80
2023-02-05T20:00:03.762Z,2.20
2023-02-05T20:02:35.948Z,2.60
2023-02-05T20:05:06.896Z,2.13
2023-02-05T20:07:38.396Z,1.97
2023-02-05T20:10:09.183Z,1.87
2023-02-05T20:12:39.622Z,2.00
2023-02-05T20:15:13.027Z,2.20
2023-02-05T20:17:42.072Z,2.10
2023-02-05T20:20:24.901Z,2.30
2023-02-05T20:22:55.134Z,2.73
2023-02-05T20:25:23.981Z,2.10
2023-02-05T20:27:54.637Z,2.33
2023-02-05T20:30:42.437Z,2.30
2023-02-05T20:33:11.929Z,2.30
2023-02-05T20:35:41.514Z,2.83
2023-02-05T20:38:11.070Z,2.83
2023-02-05T20:40:39.964Z,2.33
2023-02-05T20:43:09.845Z,2.40
2023-02-05T20:45:40.740Z,2.33
2023-02-05T20:48:10.202Z,2.47
2023-02-05T20:50:38.949Z,2.70
2023-02-05T20:53:08.438Z,2.00
2023-02-05T20:55:38.478Z,2.33
2023-02-05T20:58:08.035Z,2.37
2023-02-05T21:00:39.387Z,2.67
2023-02-05T21:03:09.033Z,2.60
2023-02-05T21:05:39.448Z,2.60
2023-02-05T21:08:08.904Z,3.37
2023-02-05T21:10:39.847Z,3.33
2023-02-05T21:13:08.865Z,14.53
2023-02-05T21:15:40.166Z,2.90
2023-02-05T21:18:09.793Z,2.53
2023-02-05T21:20:39.179Z,1.80
2023-02-05T21:23:07.596Z,2.07
2023-02-05T21:25:37.485Z,2.43
2023-02-05T21:28:07.943Z,2.57
2023-02-05T21:30:39.032Z,1.83
2023-02-05T21:33:09.055Z,3.20
2023-02-05T21:35:39.885Z,2.77
2023-02-05T21:38:08.362Z,2.20
2023-02-05T21:40:40.047Z,2.27
2023-02-05T21:43:08.853Z,2.70
2023-02-05T21:45:39.227Z,2.63
2023-02-05T21:48:09.769Z,2.60
2023-02-05T21:50:41.420Z,2.67
2023-02-05T21:53:12.584Z,2.33
2023-02-05T21:55:41.545Z,2.60
2023-02-05T21:58:10.511Z,2.87
2023-02-05T22:00:41.223Z,2.83
2023-02-05T22:03:10.781Z,2.83
2023-02-05T22:05:39.170Z,2.40
2023-02-05T22:08:11.816Z,2.83
2023-02-05T22:10:41.019Z,3.30
2023-02-05T22:13:10.014Z,3.50
2023-02-05T22:15:40.419Z,2.90
2023-02-05T22:18:09.952Z,2.90
2023-02-05T22:20:39.496Z,2.60
2023-02-05T22:23:09.428Z,2.87
2023-02-05T22:25:39.769Z,2.90
2023-02-05T22:28:09.923Z,3.00
2023-02-05T22:30:39.821Z,2.87
2023-02-05T22:33:09.700Z,3.30
2023-02-05T22:35:38.103Z,3.60
2023-02-05T22:38:07.733Z,3.10
2023-02-05T22:40:37.759Z,2.93
2023-02-05T22:43:06.895Z,2.73
2023-02-05T22:45:36.724Z,2.73
2023-02-05T22:48:08.911Z,2.50
2023-02-05T22:50:40.376Z,2.30
2023-02-05T22:53:13.037Z,2.20
2023-02-05T22:55:42.454Z,2.80
2023-02-05T22:58:12.696Z,2.67
2023-02-05T23:00:42.822Z,3.10
2023-02-05T23:03:14.265Z,2.97
2023-02-05T23:05:43.242Z,3.83
2023-02-05T23:08:13.362Z,3.10
2023-02-05T23:10:42.567Z,3.10
2023-02-05T23:13:12.428Z,2.50
2023-02-05T23:15:41.446Z,2.77
2023-02-05T23:18:12.798Z,3.13
2023-02-05T23:20:43.324Z,2.07
2023-02-05T23:23:12.824Z,2.20
2023-02-05T23:25:43.316Z,2.80
2023-02-05T23:28:13.762Z,2.43
2023-02-05T23:30:42.828Z,2.50
2023-02-05T23:33:13.658Z,2.23
2023-02-05T23:35:43.886Z,2.00
2023-02-05T23:38:14.553Z,2.10
2023-02-05T23:40:45.220Z,2.30
2023-02-05T23:43:14.547Z,2.40
2023-02-05T23:45:44.361Z,1.70
2023-02-05T23:48:16.254Z,2.60
2023-02-05T23:50:45.931Z,2.20
2023-02-05T23:53:15.298Z,1.80
2023-02-05T23:55:46.238Z,2.20
2023-02-05T23:58:16.412Z,1.80
